Custer Park, Illinois
Current Conditions -  °F | °C
As of 7:15 PM on Sunday 21 Dec 2014 (Local Time) from KJOT Reporting Station
Overcast Overcast  
Wind Chill: 30°   Ceiling: 3100
Heat Index: 35°   Visibility: 7mi
Dew Point: 30°   Wind: 6mph
Humidity: 83%   Direction: 150°SSE
Pressure: 30.08"   Gusts: NA
Location:  41.3199°N, 88.0518°W
Report Text: KJOT 220115Z AUTO 15005KT 7SM SCT025 OVC031 02/M01 A3008 RMK AO2 T00161010
Loading
Personal Weather Stations






























Interactive Weather Map New forecast layout! Learn more

10-Day Weather Forecast

Advertisements
Track Severe Weather on mobile